createdAt,value
2019-02-17T00:01:43.777Z,5.17
2019-02-17T00:04:13.452Z,4.10
2019-02-17T00:06:41.689Z,4.50
2019-02-17T00:09:12.401Z,4.73
2019-02-17T00:11:40.742Z,3.23
2019-02-17T00:14:08.797Z,4.17
2019-02-17T00:16:36.990Z,4.47
2019-02-17T00:19:05.242Z,3.50
2019-02-17T00:21:33.418Z,4.53
2019-02-17T00:24:01.407Z,4.03
2019-02-17T00:26:29.768Z,4.13
2019-02-17T00:28:59.808Z,3.87
2019-02-17T00:31:27.742Z,3.87
2019-02-17T00:33:55.933Z,4.00
2019-02-17T00:36:24.213Z,4.00
2019-02-17T00:38:53.097Z,3.60
2019-02-17T00:41:20.990Z,3.67
2019-02-17T00:43:49.180Z,3.63
2019-02-17T00:46:17.417Z,3.93
2019-02-17T00:48:45.810Z,3.60
2019-02-17T00:51:13.861Z,3.23
2019-02-17T00:53:41.770Z,3.27
2019-02-17T00:56:09.718Z,3.17
2019-02-17T00:58:38.378Z,3.53
2019-02-17T01:01:06.488Z,3.23
2019-02-17T01:03:34.830Z,3.40
2019-02-17T01:06:03.742Z,3.13
2019-02-17T01:08:31.626Z,3.93
2019-02-17T01:11:00.273Z,3.40
2019-02-17T01:13:28.365Z,4.13
2019-02-17T01:15:56.718Z,3.73
2019-02-17T01:18:24.821Z,3.47
2019-02-17T01:20:52.873Z,3.40
2019-02-17T01:23:21.069Z,3.67
2019-02-17T01:25:49.017Z,4.07
2019-02-17T01:28:17.694Z,3.70
2019-02-17T01:30:45.907Z,3.40
2019-02-17T01:33:13.876Z,3.53
2019-02-17T01:35:41.928Z,3.43
2019-02-17T01:38:10.010Z,3.23
2019-02-17T01:40:38.362Z,3.50
2019-02-17T01:43:06.454Z,3.23
2019-02-17T01:45:35.123Z,3.97
2019-02-17T01:48:03.873Z,3.63
2019-02-17T01:50:32.231Z,3.63
2019-02-17T01:53:00.562Z,3.70
2019-02-17T01:55:28.962Z,3.53
2019-02-17T01:57:57.370Z,3.57
2019-02-17T02:00:25.392Z,3.80
2019-02-17T02:02:53.574Z,3.90
2019-02-17T02:05:21.855Z,3.40
2019-02-17T02:07:50.232Z,3.40
2019-02-17T02:10:18.437Z,3.80
2019-02-17T02:12:46.461Z,3.77
2019-02-17T02:15:14.997Z,3.23
2019-02-17T02:17:43.013Z,3.07
2019-02-17T02:20:12.245Z,3.30
2019-02-17T02:22:40.831Z,3.73
2019-02-17T02:25:09.706Z,3.17
2019-02-17T02:27:37.654Z,3.20
2019-02-17T02:30:07.201Z,3.00
2019-02-17T02:32:35.287Z,3.73
2019-02-17T02:35:04.269Z,2.70
2019-02-17T02:37:32.405Z,2.97
2019-02-17T02:40:00.687Z,2.93
2019-02-17T02:42:29.071Z,2.60
2019-02-17T02:44:57.144Z,2.30
2019-02-17T02:47:25.332Z,2.50
2019-02-17T02:49:53.586Z,1.93
2019-02-17T02:52:21.650Z,2.37
2019-02-17T02:54:49.840Z,2.47
2019-02-17T02:57:18.126Z,2.37
2019-02-17T02:59:52.479Z,2.53
2019-02-17T03:02:16.413Z,1.87
2019-02-17T03:04:44.770Z,2.30
2019-02-17T03:07:15.829Z,2.10
2019-02-17T03:09:44.013Z,2.53
2019-02-17T03:12:12.092Z,2.70
2019-02-17T03:14:41.675Z,2.60
2019-02-17T03:17:09.830Z,2.50
2019-02-17T03:19:38.131Z,2.33
2019-02-17T03:22:05.999Z,2.10
2019-02-17T03:24:34.302Z,2.00
2019-02-17T03:27:02.369Z,2.13
2019-02-17T03:29:30.795Z,2.43
2019-02-17T03:31:59.470Z,2.23
2019-02-17T03:34:27.782Z,1.70
2019-02-17T03:36:56.180Z,2.20
2019-02-17T03:39:24.217Z,2.00
2019-02-17T03:41:52.911Z,1.90
2019-02-17T03:44:21.007Z,2.00
2019-02-17T03:46:49.202Z,1.80
2019-02-17T03:49:17.162Z,1.90
2019-02-17T03:51:45.198Z,1.80
2019-02-17T03:54:13.554Z,1.90
2019-02-17T03:56:42.130Z,1.90
2019-02-17T03:59:10.636Z,2.13
2019-02-17T04:01:38.729Z,1.80
2019-02-17T04:04:06.893Z,1.80
2019-02-17T04:06:35.148Z,1.87
2019-02-17T04:09:05.452Z,1.53
2019-02-17T04:11:33.491Z,2.27
2019-02-17T04:14:01.838Z,1.70
2019-02-17T04:16:30.237Z,2.00
2019-02-17T04:18:58.293Z,1.93
2019-02-17T04:21:26.967Z,2.00
2019-02-17T04:23:55.364Z,2.00
2019-02-17T04:26:23.462Z,2.20
2019-02-17T04:28:51.804Z,1.90
2019-02-17T04:31:20.175Z,1.70
2019-02-17T04:33:48.569Z,2.23
2019-02-17T04:36:17.336Z,2.00
2019-02-17T04:38:45.637Z,2.20
2019-02-17T04:41:13.691Z,2.00
2019-02-17T04:43:42.647Z,1.43
2019-02-17T04:46:10.770Z,1.90
2019-02-17T04:48:38.927Z,1.57
2019-02-17T04:51:07.238Z,2.07
2019-02-17T04:53:35.283Z,1.50
2019-02-17T04:56:03.956Z,2.17
2019-02-17T04:58:32.614Z,1.73
2019-02-17T05:01:01.599Z,1.87
2019-02-17T05:03:29.827Z,1.77
2019-02-17T05:05:58.072Z,1.90
2019-02-17T05:08:26.175Z,1.70
2019-02-17T05:10:54.335Z,1.50
2019-02-17T05:13:22.627Z,1.70
2019-02-17T05:15:50.780Z,1.70
2019-02-17T05:18:19.042Z,1.53
2019-02-17T05:20:47.758Z,1.57
2019-02-17T05:23:16.154Z,1.80
2019-02-17T05:25:44.296Z,1.33
2019-02-17T05:28:12.478Z,1.60
2019-02-17T05:30:51.647Z,1.80
2019-02-17T05:33:13.906Z,1.50
2019-02-17T05:35:42.650Z,1.20
2019-02-17T05:38:11.048Z,1.53
2019-02-17T05:40:39.675Z,1.80
2019-02-17T05:43:07.782Z,1.67
2019-02-17T05:45:36.145Z,1.23
2019-02-17T05:48:04.552Z,1.30
2019-02-17T05:50:32.591Z,1.60
2019-02-17T05:53:00.771Z,1.10
2019-02-17T05:55:29.339Z,1.37
2019-02-17T05:57:58.033Z,1.53
2019-02-17T06:00:30.019Z,1.53
2019-02-17T06:02:57.877Z,1.57
2019-02-17T06:05:26.040Z,1.43
2019-02-17T06:07:54.306Z,1.40
2019-02-17T06:10:22.657Z,1.73
2019-02-17T06:12:50.802Z,1.50
2019-02-17T06:15:18.887Z,1.73
2019-02-17T06:17:47.656Z,1.90
2019-02-17T06:20:16.514Z,1.60
2019-02-17T06:22:44.587Z,1.83
2019-02-17T06:25:13.142Z,2.50
2019-02-17T06:27:41.657Z,1.60
2019-02-17T06:30:09.806Z,1.50
2019-02-17T06:32:37.782Z,1.90
2019-02-17T06:35:06.474Z,1.73
2019-02-17T06:37:34.981Z,1.60
2019-02-17T06:40:03.134Z,1.90
2019-02-17T06:42:31.618Z,1.57
2019-02-17T06:44:59.483Z,1.67
2019-02-17T06:47:31.632Z,2.20
2019-02-17T06:49:59.897Z,2.10
2019-02-17T06:52:27.897Z,2.47
2019-02-17T06:55:27.857Z,2.53
2019-02-17T06:57:56.091Z,2.20
2019-02-17T07:00:45.550Z,1.80
2019-02-17T07:03:14.419Z,1.60
2019-02-17T07:06:08.292Z,2.10
2019-02-17T07:08:36.539Z,1.80
2019-02-17T07:11:04.610Z,1.90
2019-02-17T07:13:33.058Z,2.00
2019-02-17T07:16:01.625Z,1.40
2019-02-17T07:18:30.027Z,3.40
2019-02-17T07:20:58.798Z,2.63
2019-02-17T07:23:26.895Z,3.27
2019-02-17T07:25:54.850Z,3.13
2019-02-17T07:28:23.270Z,2.73
2019-02-17T07:30:51.395Z,1.70
2019-02-17T07:33:19.368Z,1.80
2019-02-17T07:35:48.086Z,1.90
2019-02-17T07:38:16.217Z,2.10
2019-02-17T07:40:44.491Z,1.67
2019-02-17T07:43:13.501Z,1.60
2019-02-17T07:45:41.565Z,1.40
2019-02-17T07:48:09.958Z,1.87
2019-02-17T07:50:38.024Z,1.97
2019-02-17T07:53:06.380Z,2.20
2019-02-17T07:55:35.061Z,2.03
2019-02-17T07:58:03.442Z,2.20
2019-02-17T08:00:31.932Z,1.53
2019-02-17T08:03:00.401Z,1.60
2019-02-17T08:05:28.889Z,2.00
2019-02-17T08:07:57.326Z,1.80
2019-02-17T08:10:25.496Z,1.60
2019-02-17T08:12:53.767Z,2.10
2019-02-17T08:15:21.905Z,1.70
2019-02-17T08:17:50.233Z,1.70
2019-02-17T08:20:18.288Z,1.80
2019-02-17T08:22:46.924Z,1.50
2019-02-17T08:25:21.798Z,1.93
2019-02-17T08:27:45.344Z,1.67
2019-02-17T08:30:17.097Z,1.70
2019-02-17T08:32:45.294Z,1.50
2019-02-17T08:35:13.439Z,1.57
2019-02-17T08:37:42.178Z,1.47
2019-02-17T08:40:11.152Z,1.40
2019-02-17T08:42:39.178Z,1.60
2019-02-17T08:45:07.370Z,1.43
2019-02-17T08:47:35.428Z,1.30
2019-02-17T08:50:04.462Z,1.20
2019-02-17T08:52:32.698Z,1.10
2019-02-17T08:55:00.862Z,1.02
2019-02-17T08:57:28.897Z,0.98
2019-02-17T08:59:56.915Z,1.30
2019-02-17T09:02:25.016Z,1.27
2019-02-17T09:04:53.067Z,1.63
2019-02-17T09:07:22.309Z,1.55
2019-02-17T09:09:50.425Z,2.83
2019-02-17T09:12:18.782Z,2.40
2019-02-17T09:14:46.933Z,2.50
2019-02-17T09:17:15.441Z,2.40
2019-02-17T09:19:56.594Z,2.00
2019-02-17T09:22:24.989Z,1.47
2019-02-17T09:24:52.952Z,1.22
2019-02-17T09:27:21.269Z,1.02
2019-02-17T09:29:49.541Z,1.20
2019-02-17T09:32:18.205Z,0.93
2019-02-17T09:34:46.579Z,1.42
2019-02-17T09:37:14.890Z,1.87
2019-02-17T09:39:42.938Z,1.25
2019-02-17T09:42:11.102Z,1.22
2019-02-17T09:44:39.544Z,1.40
2019-02-17T09:47:07.451Z,1.12
2019-02-17T09:49:35.833Z,1.45
2019-02-17T09:52:03.927Z,1.80
2019-02-17T09:54:32.589Z,1.07
2019-02-17T09:57:00.795Z,1.15
2019-02-17T09:59:28.541Z,1.37
2019-02-17T10:01:56.487Z,1.10
2019-02-17T10:04:24.603Z,1.47
2019-02-17T10:06:52.939Z,1.30
2019-02-17T10:09:21.003Z,1.17
2019-02-17T10:11:48.777Z,1.30
2019-02-17T10:14:17.101Z,1.30
2019-02-17T10:16:45.343Z,1.32
2019-02-17T10:19:13.553Z,1.40
2019-02-17T10:21:41.650Z,1.07
2019-02-17T10:24:10.494Z,1.40
2019-02-17T10:26:38.439Z,1.40
2019-02-17T10:29:06.507Z,1.07
2019-02-17T10:31:34.597Z,1.32
2019-02-17T10:34:02.666Z,1.60
2019-02-17T10:36:30.729Z,1.30
2019-02-17T10:38:58.714Z,1.37
2019-02-17T10:41:26.771Z,1.72
2019-02-17T10:43:54.931Z,1.37
2019-02-17T10:46:23.375Z,1.55
2019-02-17T10:48:51.100Z,0.80
2019-02-17T10:51:19.463Z,1.45
2019-02-17T10:53:47.201Z,1.20
2019-02-17T10:56:15.317Z,1.52
2019-02-17T10:58:43.141Z,1.20
2019-02-17T11:01:10.981Z,1.20
2019-02-17T11:03:38.881Z,1.30
2019-02-17T11:06:07.034Z,1.25
2019-02-17T11:08:35.358Z,1.35
2019-02-17T11:11:03.401Z,1.00
2019-02-17T11:13:31.842Z,1.60
2019-02-17T11:15:59.853Z,1.10
2019-02-17T11:18:27.918Z,1.05
2019-02-17T11:20:56.605Z,1.12
2019-02-17T11:23:24.574Z,1.07
2019-02-17T11:25:53.089Z,1.25
2019-02-17T11:28:21.342Z,1.40
2019-02-17T11:30:49.817Z,1.17
2019-02-17T11:33:18.522Z,1.25
2019-02-17T11:35:46.567Z,1.45
2019-02-17T11:38:15.004Z,1.37
2019-02-17T11:40:43.325Z,1.25
2019-02-17T11:43:12.008Z,1.15
2019-02-17T11:45:39.882Z,1.27
2019-02-17T11:48:07.850Z,1.10
2019-02-17T11:50:36.288Z,1.20
2019-02-17T11:53:04.292Z,1.07
2019-02-17T11:55:32.459Z,1.02
2019-02-17T11:58:00.557Z,1.27
2019-02-17T12:00:28.505Z,1.00
2019-02-17T12:02:56.611Z,0.80
2019-02-17T12:05:24.733Z,1.05
2019-02-17T12:07:53.249Z,1.20
2019-02-17T12:10:21.148Z,0.88
2019-02-17T12:12:49.497Z,1.10
2019-02-17T12:15:17.885Z,1.00
2019-02-17T12:17:46.241Z,1.07
2019-02-17T12:20:35.355Z,1.60
2019-02-17T12:23:07.789Z,1.07
2019-02-17T12:25:58.129Z,0.90
2019-02-17T12:28:30.338Z,1.30
2019-02-17T12:31:00.990Z,1.62
2019-02-17T12:33:29.141Z,1.00
2019-02-17T12:35:57.117Z,1.10
2019-02-17T12:38:24.994Z,1.12
2019-02-17T12:40:53.269Z,1.32
2019-02-17T12:43:21.659Z,1.10
2019-02-17T12:45:50.018Z,1.37
2019-02-17T12:48:18.126Z,1.10
2019-02-17T12:50:46.478Z,1.55
2019-02-17T12:53:14.853Z,1.30
2019-02-17T12:55:43.247Z,1.15
2019-02-17T12:58:11.316Z,1.22
2019-02-17T13:00:39.397Z,1.10
2019-02-17T13:03:07.569Z,1.20
2019-02-17T13:05:35.809Z,0.80
2019-02-17T13:08:03.949Z,0.90
2019-02-17T13:10:32.269Z,0.95
2019-02-17T13:13:00.438Z,1.05
2019-02-17T13:15:28.516Z,1.30
2019-02-17T13:17:56.525Z,1.02
2019-02-17T13:20:24.597Z,0.82
2019-02-17T13:22:52.628Z,0.80
2019-02-17T13:25:21.005Z,0.78
2019-02-17T13:27:49.849Z,0.93
2019-02-17T13:30:19.407Z,1.20
2019-02-17T13:32:47.893Z,1.02
2019-02-17T13:35:15.768Z,0.90
2019-02-17T13:37:43.919Z,1.05
2019-02-17T13:40:12.486Z,1.30
2019-02-17T13:42:41.177Z,1.10
2019-02-17T13:45:11.017Z,1.07
2019-02-17T13:47:38.886Z,0.95
2019-02-17T13:50:08.817Z,1.40
2019-02-17T13:52:37.182Z,1.55
2019-02-17T13:55:05.890Z,1.30
2019-02-17T13:57:34.228Z,1.30
2019-02-17T14:00:02.833Z,1.32
2019-02-17T14:02:30.828Z,1.30
2019-02-17T14:04:58.752Z,1.25
2019-02-17T14:07:27.463Z,1.35
2019-02-17T14:09:55.506Z,1.20
2019-02-17T14:12:23.878Z,1.40
2019-02-17T14:14:51.975Z,2.12
2019-02-17T14:17:20.650Z,2.62
2019-02-17T14:19:48.727Z,2.08
2019-02-17T14:22:17.394Z,1.20
2019-02-17T14:24:45.374Z,1.47
2019-02-17T14:27:14.054Z,1.80
2019-02-17T14:29:42.149Z,1.35
2019-02-17T14:32:10.529Z,1.13
2019-02-17T14:34:47.302Z,1.47
2019-02-17T14:37:15.601Z,1.97
2019-02-17T14:39:43.878Z,0.95
2019-02-17T14:42:11.918Z,1.10
2019-02-17T14:44:40.159Z,1.10
2019-02-17T14:47:15.914Z,1.40
2019-02-17T14:49:44.739Z,1.10
2019-02-17T14:52:13.516Z,1.20
2019-02-17T14:54:42.152Z,1.20
2019-02-17T14:57:10.293Z,1.67
2019-02-17T14:59:38.694Z,1.55
2019-02-17T15:02:06.771Z,1.60
2019-02-17T15:04:35.160Z,1.77
2019-02-17T15:07:03.211Z,1.20
2019-02-17T15:09:31.615Z,1.20
2019-02-17T15:11:59.737Z,1.10
2019-02-17T15:14:28.035Z,1.20
2019-02-17T15:16:56.066Z,2.12
2019-02-17T15:19:24.440Z,1.60
2019-02-17T15:21:52.557Z,1.60
2019-02-17T15:24:20.898Z,1.20
2019-02-17T15:26:52.932Z,1.12
2019-02-17T15:29:21.138Z,1.75
2019-02-17T15:31:50.698Z,1.52
2019-02-17T15:34:19.110Z,2.40
2019-02-17T15:36:47.755Z,1.70
2019-02-17T15:39:15.930Z,1.77
2019-02-17T15:41:43.848Z,2.07
2019-02-17T15:44:12.067Z,1.42
2019-02-17T15:46:40.133Z,1.30
2019-02-17T15:49:08.333Z,1.40
2019-02-17T15:51:36.806Z,2.00
2019-02-17T15:54:04.831Z,1.70
2019-02-17T15:56:32.993Z,1.37
2019-02-17T15:59:01.018Z,1.70
2019-02-17T16:01:29.139Z,1.17
2019-02-17T16:03:56.956Z,1.35
2019-02-17T16:06:25.279Z,1.10
2019-02-17T16:08:53.361Z,1.32
2019-02-17T16:11:21.491Z,1.32
2019-02-17T16:13:49.513Z,1.32
2019-02-17T16:16:17.705Z,1.30
2019-02-17T16:18:45.466Z,1.05
2019-02-17T16:21:13.927Z,1.50
2019-02-17T16:23:42.109Z,1.80
2019-02-17T16:26:10.169Z,1.07
2019-02-17T16:28:38.620Z,1.13
2019-02-17T16:31:06.635Z,1.10
2019-02-17T16:33:35.207Z,0.90
2019-02-17T16:36:03.692Z,3.02
2019-02-17T16:38:31.858Z,1.07
2019-02-17T16:40:59.870Z,1.23
2019-02-17T16:43:28.945Z,1.25
2019-02-17T16:45:56.872Z,0.90
2019-02-17T16:48:25.057Z,1.33
2019-02-17T16:50:53.421Z,1.23
2019-02-17T16:53:21.631Z,1.30
2019-02-17T16:55:50.109Z,1.20
2019-02-17T16:58:18.274Z,1.13
2019-02-17T17:00:46.271Z,1.27
2019-02-17T17:03:14.754Z,1.50
2019-02-17T17:05:42.984Z,1.33
2019-02-17T17:08:11.162Z,1.40
2019-02-17T17:10:39.745Z,1.97
2019-02-17T17:13:07.839Z,1.20
2019-02-17T17:15:37.187Z,1.50
2019-02-17T17:18:05.493Z,1.20
2019-02-17T17:20:33.882Z,1.80
2019-02-17T17:23:02.255Z,1.53
2019-02-17T17:25:30.354Z,1.90
2019-02-17T17:27:58.504Z,1.70
2019-02-17T17:30:26.821Z,1.90
2019-02-17T17:32:55.207Z,1.93
2019-02-17T17:35:23.328Z,2.10
2019-02-17T17:37:51.358Z,1.50
2019-02-17T17:40:19.391Z,1.60
2019-02-17T17:42:48.065Z,1.80
2019-02-17T17:45:16.173Z,1.83
2019-02-17T17:47:44.185Z,2.50
2019-02-17T17:50:12.947Z,2.40
2019-02-17T17:52:41.336Z,2.10
2019-02-17T17:55:09.666Z,1.90
2019-02-17T17:57:37.955Z,1.83
2019-02-17T18:00:07.050Z,1.80
2019-02-17T18:02:35.221Z,2.10
2019-02-17T18:05:09.344Z,1.80
2019-02-17T18:07:33.192Z,2.33
2019-02-17T18:10:01.470Z,2.90
2019-02-17T18:12:29.546Z,2.65
2019-02-17T18:14:58.341Z,2.70
2019-02-17T18:17:26.283Z,2.57
2019-02-17T18:19:54.969Z,1.90
2019-02-17T18:22:23.060Z,2.10
2019-02-17T18:24:51.227Z,2.47
2019-02-17T18:27:19.189Z,1.70
2019-02-17T18:29:47.370Z,2.40
2019-02-17T18:32:15.628Z,2.43
2019-02-17T18:34:44.038Z,2.33
2019-02-17T18:37:12.034Z,2.40
2019-02-17T18:39:39.872Z,2.20
2019-02-17T18:42:07.934Z,2.57
2019-02-17T18:44:35.992Z,2.40
2019-02-17T18:47:04.178Z,2.50
2019-02-17T18:49:32.446Z,2.77
2019-02-17T18:52:00.860Z,2.33
2019-02-17T18:54:28.894Z,3.27
2019-02-17T18:56:57.570Z,2.57
2019-02-17T18:59:25.678Z,3.10
2019-02-17T19:02:02.835Z,2.70
2019-02-17T19:04:31.041Z,2.83
2019-02-17T19:06:59.188Z,2.67
2019-02-17T19:09:27.157Z,2.97
2019-02-17T19:11:55.340Z,3.60
2019-02-17T19:14:23.597Z,2.67
2019-02-17T19:16:52.015Z,2.90
2019-02-17T19:19:20.157Z,2.43
2019-02-17T19:21:48.446Z,2.90
2019-02-17T19:24:16.635Z,3.00
2019-02-17T19:26:44.690Z,2.63
2019-02-17T19:29:14.038Z,2.70
2019-02-17T19:31:42.866Z,2.90
2019-02-17T19:34:11.806Z,2.70
2019-02-17T19:36:39.938Z,2.30
2019-02-17T19:39:07.995Z,2.87
2019-02-17T19:41:36.258Z,2.70
2019-02-17T19:44:04.472Z,2.50
2019-02-17T19:46:32.728Z,2.53
2019-02-17T19:49:00.648Z,1.93
2019-02-17T19:51:28.834Z,2.67
2019-02-17T19:53:57.373Z,2.70
2019-02-17T19:56:25.485Z,2.40
2019-02-17T19:58:53.833Z,2.27
2019-02-17T20:01:22.097Z,2.67
2019-02-17T20:04:18.491Z,2.50
2019-02-17T20:06:47.159Z,2.47
2019-02-17T20:09:18.554Z,2.40
2019-02-17T20:11:46.770Z,3.07
2019-02-17T20:14:15.272Z,3.13
2019-02-17T20:16:43.497Z,2.20
2019-02-17T20:19:11.967Z,2.40
2019-02-17T20:21:40.033Z,2.70
2019-02-17T20:24:08.419Z,2.43
2019-02-17T20:26:36.693Z,2.30
2019-02-17T20:29:05.472Z,2.40
2019-02-17T20:31:33.490Z,1.90
2019-02-17T20:34:01.509Z,1.97
2019-02-17T20:36:30.524Z,2.17
2019-02-17T20:38:58.687Z,2.03
2019-02-17T20:41:27.006Z,1.90
2019-02-17T20:43:55.574Z,2.10
2019-02-17T20:46:24.050Z,1.83
2019-02-17T20:48:52.572Z,2.47
2019-02-17T20:51:20.773Z,1.90
2019-02-17T20:53:49.007Z,2.20
2019-02-17T20:56:16.962Z,2.23
2019-02-17T20:58:45.601Z,2.10
2019-02-17T21:01:13.686Z,1.60
2019-02-17T21:03:42.271Z,1.70
2019-02-17T21:06:12.896Z,1.63
2019-02-17T21:08:40.350Z,1.43
2019-02-17T21:11:08.526Z,1.50
2019-02-17T21:13:37.205Z,1.37
2019-02-17T21:16:05.702Z,1.70
2019-02-17T21:18:33.874Z,1.53
2019-02-17T21:21:02.063Z,1.30
2019-02-17T21:23:30.323Z,1.90
2019-02-17T21:25:58.259Z,2.13
2019-02-17T21:28:26.473Z,1.30
2019-02-17T21:30:54.565Z,2.07
2019-02-17T21:33:22.617Z,1.93
2019-02-17T21:35:51.285Z,1.40
2019-02-17T21:38:19.456Z,2.37
2019-02-17T21:40:47.526Z,1.40
2019-02-17T21:43:16.142Z,1.70
2019-02-17T21:45:44.317Z,1.60
2019-02-17T21:48:14.109Z,1.80
2019-02-17T21:50:45.567Z,1.60
2019-02-17T21:53:20.585Z,1.77
2019-02-17T21:55:43.562Z,1.40
2019-02-17T21:58:12.089Z,1.63
2019-02-17T22:00:40.045Z,1.80
2019-02-17T22:03:08.423Z,2.00
2019-02-17T22:05:36.458Z,1.53
2019-02-17T22:08:04.659Z,1.60
2019-02-17T22:10:32.689Z,1.47
2019-02-17T22:13:00.955Z,1.30
2019-02-17T22:15:29.150Z,1.60
2019-02-17T22:17:57.099Z,1.27
2019-02-17T22:20:25.288Z,1.63
2019-02-17T22:22:53.409Z,1.30
2019-02-17T22:25:21.622Z,1.40
2019-02-17T22:27:49.822Z,2.03
2019-02-17T22:30:18.086Z,1.87
2019-02-17T22:32:46.271Z,2.10
2019-02-17T22:35:14.409Z,1.50
2019-02-17T22:37:43.193Z,1.37
2019-02-17T22:40:11.789Z,1.70
2019-02-17T22:42:39.758Z,1.50
2019-02-17T22:45:08.687Z,1.70
2019-02-17T22:47:36.836Z,2.07
2019-02-17T22:50:07.495Z,1.63
2019-02-17T22:52:35.444Z,1.10
2019-02-17T22:55:03.603Z,1.60
2019-02-17T22:57:31.518Z,1.70
2019-02-17T22:59:59.543Z,1.27
2019-02-17T23:02:28.236Z,1.33
2019-02-17T23:04:56.329Z,1.43
2019-02-17T23:07:24.534Z,1.40
2019-02-17T23:09:52.506Z,1.10
2019-02-17T23:12:20.878Z,1.40
2019-02-17T23:14:48.921Z,1.60
2019-02-17T23:17:17.372Z,1.50
2019-02-17T23:19:45.357Z,1.90
2019-02-17T23:22:14.089Z,1.60
2019-02-17T23:24:43.920Z,1.47
2019-02-17T23:27:12.949Z,2.00
2019-02-17T23:29:43.002Z,1.63
2019-02-17T23:32:11.525Z,1.40
2019-02-17T23:34:39.660Z,1.77
2019-02-17T23:37:08.063Z,2.10
2019-02-17T23:39:36.671Z,1.80
2019-02-17T23:42:04.912Z,1.33
2019-02-17T23:44:32.860Z,1.80
2019-02-17T23:47:00.887Z,2.00
2019-02-17T23:49:29.587Z,2.00
2019-02-17T23:51:58.659Z,1.73
2019-02-17T23:54:27.272Z,1.73
2019-02-17T23:56:55.953Z,2.00
2019-02-17T23:59:24.332Z,2.27
